In Rescue
 
Open Full Screen Window  High Contrast Mode
Wind Gusting 15 knots
07
March 29, 2020 7:31 PM EDT
Weather Information
Wind Direction
  240 °
Wind Speed
  07 kt (8 mph)
Wind Gust
  15 kt (17 mph)
Altimeter
29.78 in
Visibility
10 SM
Temperature
11° C
52° F
Dewpoint
05° C
41° F
Humidity
67%
Sky Condition
Overcast @ 6,000 ft
Broken @ 5,000 ft
Scattered @ 4,400 ft
VFR

METAR KDUH 292331Z AUTO 24007G15KT 10SM SCT044 BKN050 OVC060 11/05 A2978 RMK AO2 T01100053

FAA Disclaimer: The data displayed is for advisory purposes only and is not to be used for flight planning or operations.